Time;durP1;ratioP1;P1;durP2;ratioP2;P2;SDS_P1;SDS_P2;PMS_P1;PMS_P2;Temp;Humidity;BMP_temperature;BMP_pressure;BME280_temperature;BME280_humidity;BME280_pressure;Samples;Min_cycle;Max_cycle;Signal;HPM_P1;HPM_P2
2023/02/21 02:14:50;;;;;;;6.22;4.78;;;9.20;99.90;;;;;;4930405;29;20054;-58
2023/02/21 02:17:35;;;;;;;7.22;4.93;;;9.20;99.90;;;;;;4951559;29;20091;-57
2023/02/21 02:20:18;;;;;;;6.60;5.32;;;9.20;99.90;;;;;;4952041;29;20058;-57
2023/02/21 02:23:10;;;;;;;6.65;5.15;;;9.20;99.90;;;;;;4956808;28;20130;-58
2023/02/21 02:26:00;;;;;;;9.02;6.18;;;9.20;99.90;;;;;;4922537;29;20047;-57
2023/02/21 02:28:45;;;;;;;8.13;5.78;;;9.20;99.90;;;;;;4924738;28;20061;-57
2023/02/21 02:31:16;;;;;;;6.05;5.00;;;9.20;99.90;;;;;;4957516;28;20150;-57
2023/02/21 02:34:18;;;;;;;7.57;5.53;;;9.20;99.90;;;;;;4934616;29;20134;-57
2023/02/21 02:37:09;;;;;;;5.30;4.70;;;9.20;99.90;;;;;;4923919;29;20127;-54
2023/02/21 02:39:59;;;;;;;7.00;5.03;;;9.20;99.90;;;;;;4889289;29;20047;-55
2023/02/21 02:42:44;;;;;;;7.00;5.78;;;9.20;99.90;;;;;;4949490;29;20054;-57
2023/02/21 02:45:23;;;;;;;6.20;4.70;;;9.20;99.90;;;;;;4960722;28;20063;-56
2023/02/21 02:47:54;;;;;;;5.88;4.43;;;9.20;99.90;;;;;;4950902;28;20081;-55
2023/02/21 02:50:21;;;;;;;4.60;4.03;;;9.20;99.90;;;;;;4936887;29;20055;-59
2023/02/21 02:52:52;;;;;;;5.70;4.43;;;9.30;99.90;;;;;;4934553;29;20098;-57
2023/02/21 02:55:31;;;;;;;6.53;4.60;;;9.20;99.90;;;;;;4948111;28;20490;-59
2023/02/21 02:57:58;;;;;;;8.52;5.05;;;9.20;99.90;;;;;;4964029;28;20053;-58
2023/02/21 03:00:24;;;;;;;5.45;4.85;;;9.20;99.90;;;;;;4934115;29;20047;-58
2023/02/21 03:03:10;;;;;;;7.80;5.43;;;9.20;99.90;;;;;;4948082;28;20143;-58
2023/02/21 03:06:18;;;;;;;7.80;4.85;;;9.30;99.90;;;;;;4951578;29;20051;-57
2023/02/21 03:09:12;;;;;;;8.35;5.57;;;9.20;99.90;;;;;;4943133;29;20425;-59
2023/02/21 03:11:53;;;;;;;7.55;4.82;;;9.30;99.90;;;;;;4943810;28;20051;-56
2023/02/21 03:14:20;;;;;;;8.88;5.00;;;9.30;99.90;;;;;;4943833;29;20039;-55
2023/02/21 03:16:49;;;;;;;5.95;5.05;;;9.30;99.90;;;;;;4936497;29;20066;-57
2023/02/21 03:19:17;;;;;;;7.20;5.95;;;9.20;99.90;;;;;;4933495;29;20058;-56
2023/02/21 03:21:50;;;;;;;10.60;5.43;;;9.20;99.90;;;;;;4963103;28;20138;-58
2023/02/21 03:24:17;;;;;;;7.30;4.80;;;9.30;99.90;;;;;;4947310;29;20705;-56
2023/02/21 03:26:45;;;;;;;11.27;5.18;;;9.30;99.90;;;;;;4952092;28;20143;-56
2023/02/21 03:29:11;;;;;;;7.47;4.70;;;9.30;99.90;;;;;;4931593;29;20043;-57
2023/02/21 03:31:48;;;;;;;6.78;4.70;;;9.20;99.90;;;;;;4933619;29;20055;-56
2023/02/21 03:34:14;;;;;;;7.70;4.78;;;9.30;99.90;;;;;;4937022;28;20050;-57
2023/02/21 03:36:41;;;;;;;5.13;4.50;;;9.20;99.90;;;;;;4933438;29;20051;-56
2023/02/21 03:39:08;;;;;;;6.28;4.32;;;9.20;99.90;;;;;;4927816;28;20505;-59
2023/02/21 03:41:35;;;;;;;5.75;4.28;;;9.20;99.90;;;;;;4952207;28;20134;-55
2023/02/21 03:44:02;;;;;;;6.30;4.43;;;9.20;99.90;;;;;;4970154;28;20051;-58
2023/02/21 03:46:28;;;;;;;5.25;3.92;;;9.30;99.90;;;;;;4950841;28;20051;-57
2023/02/21 03:48:55;;;;;;;5.57;4.47;;;9.20;99.90;;;;;;4964846;28;20047;-59
2023/02/21 03:51:22;;;;;;;6.63;4.85;;;9.30;99.90;;;;;;4951913;28;20054;-56
2023/02/21 03:53:48;;;;;;;10.27;5.53;;;9.20;99.90;;;;;;4950461;28;20051;-53
2023/02/21 03:56:15;;;;;;;6.43;5.53;;;9.20;99.90;;;;;;4933176;29;20047;-53
2023/02/21 03:58:42;;;;;;;6.28;5.10;;;9.20;99.90;;;;;;4950280;29;20138;-57
2023/02/21 04:01:09;;;;;;;7.75;5.07;;;9.20;99.90;;;;;;4950917;28;20055;-53
2023/02/21 04:03:35;;;;;;;5.55;4.57;;;9.10;99.90;;;;;;4950001;28;20055;-56
2023/02/21 04:06:02;;;;;;;6.80;4.40;;;9.10;99.90;;;;;;4949113;28;20043;-53
2023/02/21 04:08:29;;;;;;;5.10;4.30;;;9.20;99.90;;;;;;4949674;29;20487;-57
2023/02/21 04:10:56;;;;;;;5.90;4.43;;;9.20;99.90;;;;;;4948680;28;20062;-56
2023/02/21 04:13:23;;;;;;;5.47;4.57;;;9.20;99.90;;;;;;4956516;28;20516;-56
2023/02/21 04:15:50;;;;;;;4.40;3.97;;;9.20;99.90;;;;;;4964704;28;20130;-56
2023/02/21 04:18:17;;;;;;;4.63;3.90;;;9.30;99.90;;;;;;4956253;28;20490;-57
2023/02/21 04:20:45;;;;;;;4.60;3.65;;;9.20;99.90;;;;;;4935216;28;20046;-57
2023/02/21 04:23:18;;;;;;;5.80;3.75;;;9.20;99.90;;;;;;4932802;29;20513;-57
2023/02/21 04:25:45;;;;;;;7.20;3.85;;;9.20;99.90;;;;;;4917620;28;20050;-57
2023/02/21 04:28:12;;;;;;;5.35;3.72;;;9.30;99.90;;;;;;4946730;28;20082;-58
2023/02/21 04:30:38;;;;;;;6.00;3.90;;;9.30;99.90;;;;;;4950058;28;20054;-57
2023/02/21 04:33:05;;;;;;;4.35;3.65;;;9.30;99.90;;;;;;4950236;28;20055;-57
2023/02/21 04:35:32;;;;;;;6.38;4.38;;;9.30;99.90;;;;;;4949266;29;20078;-57
2023/02/21 04:37:58;;;;;;;5.60;4.32;;;9.30;99.90;;;;;;4949308;29;20047;-56
2023/02/21 04:40:25;;;;;;;7.43;4.55;;;9.30;99.90;;;;;;4949585;29;20051;-57
2023/02/21 04:42:52;;;;;;;4.47;3.42;;;9.30;99.90;;;;;;4954440;28;20441;-56
2023/02/21 04:45:18;;;;;;;5.00;4.10;;;9.30;99.90;;;;;;4949620;28;20054;-60
2023/02/21 04:47:45;;;;;;;5.57;3.67;;;9.30;99.90;;;;;;4949660;29;20078;-57
2023/02/21 04:50:12;;;;;;;4.97;3.78;;;9.30;99.90;;;;;;4961155;28;20085;-58
2023/02/21 04:52:39;;;;;;;5.72;3.80;;;9.30;99.90;;;;;;4955680;28;20134;-56
2023/02/21 04:55:07;;;;;;;3.65;3.17;;;9.30;99.90;;;;;;4949409;29;20093;-56
2023/02/21 04:57:34;;;;;;;4.28;2.95;;;9.30;99.90;;;;;;4949534;29;20692;-58
2023/02/21 05:00:01;;;;;;;3.55;2.95;;;9.20;99.90;;;;;;4949194;29;20086;-57
2023/02/21 05:02:27;;;;;;;6.15;3.10;;;9.20;99.90;;;;;;4952517;28;20055;-57
2023/02/21 05:04:54;;;;;;;4.70;3.35;;;9.20;99.90;;;;;;4949471;29;20247;-56
2023/02/21 05:07:21;;;;;;;6.32;3.15;;;9.10;99.90;;;;;;4932170;29;20114;-57
2023/02/21 05:09:48;;;;;;;5.45;2.42;;;9.10;99.90;;;;;;4948605;29;20057;-60
2023/02/21 05:12:18;;;;;;;3.38;2.67;;;9.10;99.90;;;;;;4956666;28;20142;-57
2023/02/21 05:14:44;;;;;;;5.53;3.50;;;9.00;99.90;;;;;;4949999;28;20135;-57
2023/02/21 05:17:11;;;;;;;5.30;2.50;;;9.10;99.90;;;;;;4949088;29;20058;-57
2023/02/21 05:19:38;;;;;;;3.15;2.78;;;9.10;99.90;;;;;;4948961;29;20109;-58
2023/02/21 05:22:06;;;;;;;5.05;2.72;;;9.10;99.90;;;;;;4949219;29;20047;-58
2023/02/21 05:24:33;;;;;;;3.92;3.00;;;9.10;99.90;;;;;;4961847;28;20528;-56
2023/02/21 05:27:00;;;;;;;4.88;2.58;;;9.10;99.90;;;;;;4946993;28;20047;-55
2023/02/21 05:29:27;;;;;;;3.97;3.30;;;9.10;99.90;;;;;;4957121;28;20047;-58
2023/02/21 05:31:54;;;;;;;5.18;3.05;;;9.10;99.90;;;;;;4950194;28;20055;-57
2023/02/21 05:34:20;;;;;;;4.20;3.35;;;9.20;99.90;;;;;;4948874;29;20110;-57
2023/02/21 05:36:47;;;;;;;5.00;4.22;;;9.20;99.90;;;;;;4949381;29;20055;-59
2023/02/21 05:39:14;;;;;;;3.45;2.80;;;9.20;99.90;;;;;;4948714;29;20495;-57
2023/02/21 05:41:48;;;;;;;5.05;3.58;;;9.20;99.90;;;;;;4949090;29;20061;-57
2023/02/21 05:44:15;;;;;;;4.47;3.45;;;9.20;99.90;;;;;;4951364;28;20044;-58
2023/02/21 05:46:42;;;;;;;4.22;2.95;;;9.20;99.90;;;;;;4931804;29;20154;-58
2023/02/21 05:49:08;;;;;;;6.00;3.63;;;9.20;99.90;;;;;;4951066;28;20055;-57
2023/02/21 05:51:40;;;;;;;7.60;3.90;;;9.20;99.90;;;;;;4948327;29;20171;-57
2023/02/21 05:54:07;;;;;;;7.22;3.75;;;9.10;99.90;;;;;;4962656;28;20061;-58
2023/02/21 05:56:38;;;;;;;7.72;4.53;;;9.00;99.90;;;;;;4950919;28;20520;-57
2023/02/21 05:59:05;;;;;;;5.43;3.50;;;9.10;99.90;;;;;;4932157;28;20128;-55
2023/02/21 06:01:31;;;;;;;4.57;3.95;;;9.00;99.90;;;;;;4948119;29;20063;-58
2023/02/21 06:03:58;;;;;;;6.13;4.38;;;9.00;99.90;;;;;;4963363;28;20063;-54
2023/02/21 06:06:25;;;;;;;5.22;4.28;;;9.10;99.90;;;;;;4948683;29;20051;-58
2023/02/21 06:08:52;;;;;;;6.75;4.57;;;9.10;99.90;;;;;;4931654;29;20054;-59
2023/02/21 06:11:24;;;;;;;6.03;4.47;;;9.10;99.90;;;;;;4963408;28;20051;-57
2023/02/21 06:13:51;;;;;;;6.47;4.78;;;9.00;99.90;;;;;;4968045;28;20047;-55
2023/02/21 06:16:18;;;;;;;4.68;4.18;;;9.10;99.90;;;;;;4950960;28;20569;-58
2023/02/21 06:18:48;;;;;;;5.40;4.10;;;9.20;99.90;;;;;;4965902;28;20557;-56
2023/02/21 06:21:14;;;;;;;5.38;3.63;;;9.10;99.90;;;;;;4935497;29;20138;-57
2023/02/21 06:23:41;;;;;;;5.70;4.07;;;9.10;99.90;;;;;;4948672;28;20098;-58
2023/02/21 06:26:08;;;;;;;6.10;3.63;;;9.10;99.90;;;;;;4951873;29;21025;-56
2023/02/21 06:28:35;;;;;;;5.30;4.47;;;9.10;99.90;;;;;;4952248;29;20062;-54
2023/02/21 06:31:03;;;;;;;5.20;4.63;;;9.00;99.90;;;;;;4951123;29;20047;-54
2023/02/21 06:33:29;;;;;;;6.07;4.43;;;9.00;99.90;;;;;;4952227;29;20048;-56
2023/02/21 06:35:56;;;;;;;5.85;4.22;;;9.00;99.90;;;;;;4934347;29;20061;-56
2023/02/21 06:38:23;;;;;;;8.18;4.05;;;9.00;99.90;;;;;;4958758;28;20167;-56
2023/02/21 06:40:50;;;;;;;5.82;3.85;;;9.00;99.90;;;;;;4951356;29;20090;-57
2023/02/21 06:43:17;;;;;;;5.60;2.65;;;9.10;99.90;;;;;;4954540;28;20077;-57
2023/02/21 06:45:44;;;;;;;3.72;3.22;;;9.10;99.90;;;;;;4966717;28;20130;-57
2023/02/21 06:48:14;;;;;;;4.10;2.78;;;9.10;99.90;;;;;;4951463;29;20057;-57
2023/02/21 06:50:41;;;;;;;4.25;3.10;;;9.10;99.90;;;;;;4956467;28;20055;-56
2023/02/21 06:53:08;;;;;;;6.28;3.70;;;9.10;99.90;;;;;;4934054;29;20051;-57
2023/02/21 06:55:35;;;;;;;3.65;2.97;;;9.10;99.90;;;;;;4938884;28;20046;-57
2023/02/21 06:58:01;;;;;;;5.45;3.72;;;9.00;99.90;;;;;;4951053;29;20045;-56
2023/02/21 07:00:28;;;;;;;5.25;3.63;;;9.20;99.90;;;;;;4962927;28;20504;-57
2023/02/21 07:02:55;;;;;;;5.57;3.38;;;9.20;99.90;;;;;;4952491;28;20055;-57
2023/02/21 07:05:21;;;;;;;6.25;3.78;;;9.20;99.90;;;;;;4950744;29;20053;-55
2023/02/21 07:07:48;;;;;;;5.63;3.42;;;9.30;99.90;;;;;;4958196;28;20053;-54
2023/02/21 07:10:15;;;;;;;6.20;3.40;;;9.10;99.90;;;;;;4932199;29;20044;-54
2023/02/21 07:12:42;;;;;;;3.95;3.20;;;9.10;99.90;;;;;;4944057;29;20065;-57
2023/02/21 07:15:09;;;;;;;7.90;3.70;;;9.10;99.90;;;;;;4932635;29;20070;-56
2023/02/21 07:17:35;;;;;;;7.00;3.75;;;9.20;99.90;;;;;;4917467;29;20133;-55
2023/02/21 07:20:03;;;;;;;5.70;3.17;;;9.10;99.90;;;;;;4950563;29;20130;-57
2023/02/21 07:22:30;;;;;;;7.45;4.28;;;9.20;99.90;;;;;;4949913;29;20063;-54
2023/02/21 07:24:57;;;;;;;5.93;4.55;;;9.10;99.90;;;;;;4950227;29;20057;-55
2023/02/21 07:27:23;;;;;;;5.65;4.35;;;9.20;99.90;;;;;;4958868;28;20047;-57
2023/02/21 07:29:50;;;;;;;20.80;4.60;;;9.20;99.90;;;;;;4950583;29;20047;-57
2023/02/21 07:32:17;;;;;;;7.32;3.92;;;9.20;99.90;;;;;;4952317;28;20537;-62
2023/02/21 07:34:44;;;;;;;6.20;3.83;;;9.30;99.90;;;;;;4950498;28;20533;-50
2023/02/21 07:37:10;;;;;;;6.53;4.20;;;9.30;99.90;;;;;;4962677;28;20083;-55
2023/02/21 07:39:37;;;;;;;5.68;4.00;;;9.30;99.90;;;;;;4951050;28;20122;-57
2023/02/21 07:42:06;;;;;;;5.00;4.10;;;9.30;99.90;;;;;;4967020;28;20101;-57
2023/02/21 07:44:33;;;;;;;5.97;4.32;;;9.30;99.90;;;;;;4916457;29;20102;-57
2023/02/21 07:47:00;;;;;;;4.68;3.80;;;9.30;99.90;;;;;;4958732;28;20200;-57
2023/02/21 07:49:27;;;;;;;7.47;3.83;;;9.30;99.90;;;;;;4931571;29;20061;-58
2023/02/21 07:51:53;;;;;;;5.13;3.78;;;9.30;99.90;;;;;;4955813;28;20061;-58
2023/02/21 07:54:22;;;;;;;6.78;4.47;;;9.30;99.90;;;;;;4952134;28;20051;-59
2023/02/21 07:56:48;;;;;;;6.82;4.85;;;9.30;99.90;;;;;;4960252;28;20074;-55
2023/02/21 07:59:15;;;;;;;7.38;5.35;;;9.30;99.90;;;;;;4959069;28;20051;-56
2023/02/21 08:01:42;;;;;;;7.78;4.55;;;9.30;99.90;;;;;;4962339;28;20493;-57
2023/02/21 08:04:09;;;;;;;5.78;5.15;;;9.40;99.90;;;;;;4955082;28;20050;-61
2023/02/21 08:06:35;;;;;;;5.43;4.47;;;9.40;99.90;;;;;;4953007;28;20051;-54
2023/02/21 08:09:03;;;;;;;5.13;4.40;;;9.40;99.90;;;;;;4961256;28;20541;-57
2023/02/21 08:11:29;;;;;;;7.38;5.20;;;9.40;99.90;;;;;;4939775;29;20133;-56
2023/02/21 08:13:56;;;;;;;6.00;4.30;;;9.50;99.90;;;;;;4951061;28;20125;-54
2023/02/21 08:16:23;;;;;;;9.18;5.75;;;9.50;99.90;;;;;;4949360;29;20727;-57
2023/02/21 08:18:50;;;;;;;7.82;6.00;;;9.50;99.90;;;;;;4949273;29;20040;-55
2023/02/21 08:21:16;;;;;;;12.57;5.70;;;9.50;99.90;;;;;;4950804;28;20412;-57
2023/02/21 08:23:43;;;;;;;7.65;5.50;;;9.50;99.90;;;;;;4949221;29;20053;-56
2023/02/21 08:26:10;;;;;;;6.20;5.35;;;9.50;99.90;;;;;;4949601;29;20171;-54
2023/02/21 08:28:37;;;;;;;8.27;5.60;;;9.60;99.90;;;;;;4935071;28;20074;-53
2023/02/21 08:31:04;;;;;;;8.35;5.50;;;9.60;99.90;;;;;;4948770;28;20512;-52
2023/02/21 08:33:30;;;;;;;8.95;5.85;;;9.60;99.90;;;;;;4948797;29;20506;-52
2023/02/21 08:35:57;;;;;;;8.32;5.40;;;9.50;99.90;;;;;;4948936;28;20058;-51
2023/02/21 08:38:24;;;;;;;7.65;5.30;;;9.50;99.90;;;;;;4960946;28;20061;-52
2023/02/21 08:40:51;;;;;;;10.95;5.95;;;9.50;99.90;;;;;;4948863;29;20082;-52
2023/02/21 08:43:18;;;;;;;18.42;8.18;;;9.50;99.90;;;;;;4931037;29;20869;-56
2023/02/21 08:45:45;;;;;;;8.35;5.32;;;9.60;99.90;;;;;;4948251;29;20057;-55
2023/02/21 08:48:12;;;;;;;6.63;5.32;;;9.70;99.90;;;;;;4948366;28;20062;-57
2023/02/21 08:50:38;;;;;;;8.25;5.55;;;9.60;99.90;;;;;;4948700;29;20051;-54
2023/02/21 08:53:05;;;;;;;9.02;6.20;;;9.60;99.90;;;;;;4947933;29;20512;-57
2023/02/21 08:55:32;;;;;;;11.10;6.10;;;9.60;99.90;;;;;;4939662;28;20069;-57
2023/02/21 08:57:59;;;;;;;10.95;6.45;;;9.60;99.90;;;;;;4931492;29;20074;-57
2023/02/21 09:00:28;;;;;;;9.70;5.38;;;9.60;99.90;;;;;;4948405;29;20506;-57
2023/02/21 09:02:56;;;;;;;6.43;5.30;;;9.60;99.90;;;;;;4947492;28;20538;-57
2023/02/21 09:05:26;;;;;;;9.05;5.85;;;9.70;99.90;;;;;;4963385;28;20106;-58
2023/02/21 09:07:57;;;;;;;8.45;5.75;;;9.70;99.90;;;;;;4957713;28;20047;-57
2023/02/21 09:10:28;;;;;;;8.40;6.40;;;9.70;99.90;;;;;;4961923;28;20061;-57
2023/02/21 09:12:54;;;;;;;13.90;6.28;;;9.80;99.90;;;;;;4948307;29;20043;-56
2023/02/21 09:15:21;;;;;;;9.32;6.25;;;9.80;99.90;;;;;;4948810;29;20062;-53
2023/02/21 09:17:49;;;;;;;9.98;6.63;;;9.80;99.90;;;;;;4949460;28;20126;-55
2023/02/21 09:20:18;;;;;;;12.88;6.78;;;9.90;99.90;;;;;;4949503;29;20161;-55
2023/02/21 09:22:46;;;;;;;9.95;6.35;;;9.90;99.90;;;;;;4947512;29;20493;-57
2023/02/21 09:25:14;;;;;;;11.57;5.78;;;10.00;99.90;;;;;;4948745;29;20066;-53
2023/02/21 09:27:41;;;;;;;12.25;6.13;;;10.00;99.90;;;;;;4963224;28;20117;-56
2023/02/21 09:30:09;;;;;;;7.85;6.13;;;10.00;99.90;;;;;;4948966;29;20509;-57
2023/02/21 09:32:36;;;;;;;7.57;5.75;;;10.00;99.90;;;;;;4949793;28;20051;-57
2023/02/21 09:35:04;;;;;;;21.92;8.32;;;10.00;99.90;;;;;;4948531;29;20550;-57
2023/02/21 09:37:31;;;;;;;8.55;5.70;;;10.00;99.90;;;;;;4951543;28;20557;-56
2023/02/21 09:39:58;;;;;;;10.90;6.95;;;10.00;99.90;;;;;;4962638;28;20085;-57
2023/02/21 09:42:28;;;;;;;9.70;6.35;;;10.10;99.90;;;;;;4957631;28;20090;-56
2023/02/21 09:44:55;;;;;;;8.55;6.78;;;10.10;99.90;;;;;;4923568;28;20195;-55
2023/02/21 09:47:32;;;;;;;16.88;6.70;;;10.10;99.90;;;;;;4959405;28;20554;-54
2023/02/21 09:50:02;;;;;;;7.90;5.50;;;10.10;99.90;;;;;;4942453;28;20047;-56
2023/02/21 09:52:33;;;;;;;14.23;6.97;;;10.10;99.90;;;;;;4942593;28;20143;-55
2023/02/21 09:55:05;;;;;;;14.00;6.47;;;10.20;99.90;;;;;;4948295;29;20077;-54
2023/02/21 09:57:31;;;;;;;8.15;5.70;;;10.20;99.90;;;;;;4952747;28;20047;-58
2023/02/21 09:59:58;;;;;;;14.70;7.47;;;10.30;99.90;;;;;;4957224;28;20051;-57
2023/02/21 10:02:48;;;;;;;10.02;6.68;;;10.40;99.90;;;;;;4951731;29;20057;-56
2023/02/21 10:05:29;;;;;;;14.75;6.95;;;10.40;99.90;;;;;;4944381;29;20054;-55
2023/02/21 10:08:08;;;;;;;14.38;7.78;;;10.20;99.90;;;;;;4938437;28;20076;-55
2023/02/21 10:10:41;;;;;;;20.70;7.50;;;10.20;99.90;;;;;;4935293;29;20083;-57
2023/02/21 10:13:34;;;;;;;31.17;8.50;;;10.20;99.90;;;;;;4944303;29;20073;-56
2023/02/21 10:16:10;;;;;;;10.45;6.80;;;10.20;99.90;;;;;;4930827;28;20055;-56
2023/02/21 10:18:44;;;;;;;12.88;7.18;;;10.30;99.90;;;;;;4960833;28;20059;-57
2023/02/21 10:21:16;;;;;;;10.00;7.03;;;10.40;99.90;;;;;;4935853;29;20078;-57
2023/02/21 10:23:47;;;;;;;14.70;7.75;;;10.40;99.90;;;;;;4936240;28;20075;-57
2023/02/21 10:26:21;;;;;;;11.82;8.05;;;10.50;99.90;;;;;;4966265;28;20147;-56
2023/02/21 10:28:49;;;;;;;20.88;8.32;;;10.40;99.90;;;;;;4921560;29;20498;-57
2023/02/21 10:31:30;;;;;;;14.77;8.20;;;10.40;99.90;;;;;;4934549;29;20138;-58
2023/02/21 10:33:58;;;;;;;14.13;9.05;;;10.30;99.90;;;;;;4927762;29;20086;-57
2023/02/21 10:36:25;;;;;;;20.40;9.80;;;10.30;99.90;;;;;;4951992;29;20133;-57
2023/02/21 10:39:13;;;;;;;27.30;8.82;;;10.20;99.90;;;;;;4918641;29;20059;-61
2023/02/21 10:41:40;;;;;;;12.52;8.00;;;10.20;99.90;;;;;;4930376;28;20138;-55
2023/02/21 10:44:25;;;;;;;33.30;9.07;;;10.30;99.90;;;;;;4930164;29;20055;-56
2023/02/21 10:47:14;;;;;;;19.02;8.15;;;10.40;99.90;;;;;;4919885;29;20055;-56
2023/02/21 10:49:47;;;;;;;10.77;7.53;;;10.50;99.90;;;;;;4937033;29;20039;-58
2023/02/21 10:52:16;;;;;;;32.97;9.77;;;10.40;99.90;;;;;;4942759;28;20474;-58
2023/02/21 10:55:19;;;;;;;12.65;8.40;;;10.40;99.90;;;;;;4960512;28;20054;-56
2023/02/21 10:58:08;;;;;;;12.77;8.48;;;10.40;99.90;;;;;;4951345;29;20051;-57
2023/02/21 11:00:36;;;;;;;12.20;8.70;;;10.40;99.90;;;;;;4936542;29;20310;-56
2023/02/21 11:03:22;;;;;;;32.38;10.23;;;10.40;99.90;;;;;;4936314;28;20059;-56
2023/02/21 11:05:56;;;;;;;26.85;9.73;;;10.40;99.90;;;;;;4954750;28;20469;-56
2023/02/21 11:08:33;;;;;;;;;;;10.40;99.90;;;;;;4916554;29;20055;-56
2023/02/21 11:11:01;;;;;;;28.02;9.63;;;10.50;99.90;;;;;;4946869;28;19978;-57
2023/02/21 11:13:28;;;;;;;26.52;9.90;;;10.60;99.90;;;;;;4951190;29;20058;-54
2023/02/21 11:16:17;;;;;;;24.60;10.57;;;10.50;99.90;;;;;;4918234;29;20047;-58
2023/02/21 11:18:43;;;;;;;17.90;12.15;;;10.50;99.90;;;;;;4932289;29;20082;-56
2023/02/21 11:21:15;;;;;;;19.50;12.32;;;10.50;99.90;;;;;;4946143;29;20055;-56
2023/02/21 11:23:57;;;;;;;20.38;13.52;;;10.50;99.90;;;;;;4934392;29;20105;-57
2023/02/21 11:26:24;;;;;;;29.48;13.90;;;10.50;99.90;;;;;;4949938;29;20051;-57
2023/02/21 11:28:51;;;;;;;26.65;16.63;;;10.50;99.90;;;;;;4950984;29;20081;-57
2023/02/21 11:31:29;;;;;;;31.45;14.90;;;10.50;99.90;;;;;;4965243;28;20057;-54
2023/02/21 11:34:04;;;;;;;25.42;15.48;;;10.50;99.90;;;;;;4950365;29;20054;-56
2023/02/21 11:36:35;;;;;;;21.70;13.63;;;10.50;99.90;;;;;;4935885;29;20082;-57
2023/02/21 11:39:19;;;;;;;25.63;17.55;;;10.60;99.90;;;;;;4947593;28;20145;-57
2023/02/21 11:41:53;;;;;;;27.30;18.95;;;10.50;99.90;;;;;;4956244;28;20502;-57
2023/02/21 11:44:32;;;;;;;29.27;19.10;;;10.50;99.90;;;;;;4944167;28;20058;-59
2023/02/21 11:47:22;;;;;;;30.58;18.73;;;10.50;99.90;;;;;;4955532;28;20126;-56
2023/02/21 11:49:58;;;;;;;29.92;17.67;;;10.60;99.90;;;;;;4920204;28;20503;-54
2023/02/21 11:52:32;;;;;;;29.95;16.80;;;10.60;99.90;;;;;;4936830;29;20051;-56
2023/02/21 11:54:58;;;;;;;23.77;15.63;;;10.60;99.90;;;;;;4922188;28;20053;-57
2023/02/21 11:58:03;;;;;;;28.85;16.42;;;10.60;99.90;;;;;;4951481;28;20043;-56
2023/02/21 12:01:00;;;;;;;30.13;16.67;;;10.60;99.90;;;;;;4930805;29;20130;-56
2023/02/21 12:03:43;;;;;;;21.20;14.68;;;10.60;99.90;;;;;;4927130;29;20072;-57
2023/02/21 12:06:30;;;;;;;24.98;15.80;;;10.60;99.90;;;;;;4936758;29;20051;-57
2023/02/21 12:09:14;;;;;;;16.67;12.85;;;10.70;99.90;;;;;;4922167;29;20150;-57
2023/02/21 12:11:56;;;;;;;17.15;11.95;;;10.70;99.90;;;;;;4957983;28;20439;-56
2023/02/21 12:14:44;;;;;;;20.23;13.32;;;10.70;99.90;;;;;;4925986;29;20055;-57
2023/02/21 12:17:18;;;;;;;22.60;13.60;;;10.70;99.90;;;;;;4941101;29;20051;-57
2023/02/21 12:19:51;;;;;;;;;;;10.70;99.90;;;;;;4930106;29;20043;-54
2023/02/21 12:22:21;;;;;;;22.48;12.10;;;10.60;99.90;;;;;;4937761;28;19929;-55
2023/02/21 12:24:54;;;;;;;20.33;12.25;;;10.70;99.90;;;;;;4939291;29;20127;-58
2023/02/21 12:27:33;;;;;;;;;;;10.60;99.90;;;;;;4929939;29;20084;-57
2023/02/21 12:30:29;;;;;;;25.40;12.90;;;10.60;99.90;;;;;;4929537;29;19923;-56
2023/02/21 12:33:18;;;;;;;23.83;11.45;;;10.40;99.90;;;;;;4934194;29;20051;-57
2023/02/21 12:36:05;;;;;;;14.65;10.00;;;10.20;99.90;;;;;;4925938;29;20054;-56
2023/02/21 12:38:47;;;;;;;24.60;11.13;;;10.40;99.90;;;;;;4928819;29;20499;-56
2023/02/21 12:41:46;;;;;;;17.70;11.90;;;10.30;99.90;;;;;;4928891;29;20047;-57
2023/02/21 12:44:35;;;;;;;17.88;12.00;;;10.40;99.90;;;;;;4933279;28;20056;-57
2023/02/21 12:47:11;;;;;;;18.80;10.27;;;10.50;99.90;;;;;;4941410;29;20051;-57
2023/02/21 12:49:50;;;;;;;13.55;9.88;;;10.50;99.90;;;;;;4931176;29;20056;-56
2023/02/21 12:52:37;;;;;;;14.02;9.07;;;10.50;99.90;;;;;;4929231;29;20515;-56
2023/02/21 12:55:22;;;;;;;17.23;9.48;;;10.50;99.90;;;;;;4914212;29;20059;-55
2023/02/21 12:57:51;;;;;;;16.33;10.20;;;10.60;99.90;;;;;;4940269;29;20078;-56
2023/02/21 13:00:22;;;;;;;13.18;9.85;;;10.60;99.90;;;;;;4929879;29;20051;-56
2023/02/21 13:02:51;;;;;;;19.60;10.57;;;10.60;99.90;;;;;;4929044;29;20056;-59
2023/02/21 13:05:38;;;;;;;17.52;10.10;;;10.70;99.90;;;;;;4931047;29;20091;-55
2023/02/21 13:08:21;;;;;;;20.20;10.73;;;10.70;99.90;;;;;;4947137;29;20051;-57
2023/02/21 13:10:56;;;;;;;17.55;10.50;;;10.60;99.90;;;;;;4939690;29;20044;-54
2023/02/21 13:13:26;;;;;;;19.20;10.85;;;10.60;99.90;;;;;;4916468;29;20055;-56
2023/02/21 13:15:53;;;;;;;18.83;12.07;;;10.50;99.90;;;;;;4914650;29;20168;-56
2023/02/21 13:18:25;;;;;;;19.00;10.77;;;10.60;99.90;;;;;;4928755;29;20051;-56
2023/02/21 13:21:20;;;;;;;14.95;10.82;;;10.60;99.90;;;;;;4927672;29;20078;-56
2023/02/21 13:27:22;;;;;;;14.68;9.38;;;10.60;99.90;;;;;;4932244;29;20130;-58
2023/02/21 13:29:49;;;;;;;15.85;10.70;;;10.60;99.90;;;;;;4940330;29;20538;-56
2023/02/21 13:32:20;;;;;;;15.55;10.13;;;10.50;99.90;;;;;;4939498;29;20130;-56
2023/02/21 13:34:52;;;;;;;20.23;11.50;;;10.50;99.90;;;;;;4927717;29;20075;-57
2023/02/21 13:37:20;;;;;;;18.60;11.15;;;10.60;99.90;;;;;;4932377;29;20079;-57
2023/02/21 13:40:06;;;;;;;20.42;12.40;;;10.70;99.90;;;;;;4946746;28;20418;-57
2023/02/21 13:42:35;;;;;;;21.88;11.57;;;10.70;99.90;;;;;;4902298;29;20047;-56
2023/02/21 13:45:17;;;;;;;20.73;12.23;;;10.60;99.90;;;;;;4932343;29;20388;-56
2023/02/21 13:48:16;;;;;;;18.88;11.48;;;10.60;99.90;;;;;;4932341;29;20079;-55
2023/02/21 13:50:45;;;;;;;18.98;10.80;;;10.60;99.90;;;;;;4936907;29;20086;-55
2023/02/21 13:53:23;;;;;;;16.70;11.85;;;10.60;99.90;;;;;;4933375;29;20098;-57
2023/02/21 13:56:05;;;;;;;17.08;11.00;;;10.60;99.90;;;;;;4963594;28;20070;-56
2023/02/21 13:58:43;;;;;;;19.17;10.00;;;10.60;99.90;;;;;;4933369;29;20094;-57
2023/02/21 14:01:22;;;;;;;15.57;9.98;;;10.50;99.90;;;;;;4938479;29;20051;-56
2023/02/21 14:03:52;;;;;;;18.10;9.68;;;10.50;99.90;;;;;;4931407;29;20840;-54
2023/02/21 14:06:27;;;;;;;23.95;11.43;;;10.50;99.90;;;;;;4936159;29;20051;-55
2023/02/21 14:08:57;;;;;;;16.50;8.85;;;10.40;99.90;;;;;;4937232;29;20454;-57
2023/02/21 14:11:28;;;;;;;25.00;10.00;;;10.40;99.90;;;;;;4940279;29;20051;-54
2023/02/21 14:13:57;;;;;;;14.25;8.93;;;10.40;99.90;;;;;;4927093;29;20056;-56
2023/02/21 14:16:49;;;;;;;17.35;10.05;;;10.40;99.90;;;;;;4940142;29;20054;-57
2023/02/21 14:19:37;;;;;;;15.13;9.77;;;10.40;99.90;;;;;;4928781;29;20114;-57
2023/02/21 14:22:14;;;;;;;18.23;10.75;;;10.30;99.90;;;;;;4936476;29;20131;-57
2023/02/21 14:24:43;;;;;;;14.88;9.88;;;10.20;99.90;;;;;;4945536;29;20051;-57
2023/02/21 14:27:11;;;;;;;14.02;9.75;;;10.20;99.90;;;;;;4939398;28;20070;-57
2023/02/21 14:29:43;;;;;;;17.70;9.50;;;10.40;99.90;;;;;;4933104;29;20057;-57
2023/02/21 14:32:10;;;;;;;16.30;9.95;;;10.40;99.90;;;;;;4930890;29;20048;-54
2023/02/21 14:34:46;;;;;;;17.83;10.48;;;10.40;99.90;;;;;;4928522;29;20051;-57
2023/02/21 14:37:23;;;;;;;15.82;9.95;;;10.40;99.90;;;;;;4932193;29;20055;-56
2023/02/21 14:39:54;;;;;;;16.77;10.60;;;10.40;99.90;;;;;;4943856;29;20047;-54
2023/02/21 14:42:53;;;;;;;19.17;10.13;;;10.50;99.90;;;;;;4941560;29;20062;-56
2023/02/21 14:45:22;;;;;;;23.30;11.57;;;10.50;99.90;;;;;;4922402;29;20387;-57
2023/02/21 14:48:03;;;;;;;19.13;10.05;;;10.50;99.90;;;;;;4941991;29;20144;-54
2023/02/21 14:51:20;;;;;;;19.92;10.95;;;10.60;99.90;;;;;;4932772;29;20387;-55
2023/02/21 14:54:18;;;;;;;19.23;11.07;;;10.60;99.90;;;;;;4899670;29;20056;-55
2023/02/21 14:57:00;;;;;;;17.88;10.20;;;10.50;99.90;;;;;;4917814;29;20466;-56
2023/02/21 14:59:29;;;;;;;22.90;10.07;;;10.50;99.90;;;;;;4930657;29;20402;-56
2023/02/21 15:02:08;;;;;;;18.60;11.68;;;10.50;99.90;;;;;;4936775;29;20086;-57
2023/02/21 15:04:45;;;;;;;15.07;9.38;;;10.40;99.90;;;;;;4951392;29;20055;-58
2023/02/21 15:07:35;;;;;;;22.10;10.45;;;10.40;99.90;;;;;;4950959;29;20057;-59
2023/02/21 15:10:08;;;;;;;22.15;10.73;;;10.40;99.90;;;;;;4947456;28;20051;-57
2023/02/21 15:12:38;;;;;;;20.70;11.95;;;10.40;99.90;;;;;;4964459;28;20134;-58
2023/02/21 15:15:05;;;;;;;21.73;10.77;;;10.40;99.90;;;;;;4934326;29;20051;-56
2023/02/21 15:17:32;;;;;;;17.30;10.80;;;10.40;99.90;;;;;;4918467;29;20158;-56
2023/02/21 15:20:17;;;;;;;20.45;9.57;;;10.40;99.90;;;;;;4955911;28;20050;-56
2023/02/21 15:22:43;;;;;;;16.85;8.55;;;10.40;99.90;;;;;;4968150;28;20055;-56
2023/02/21 15:25:13;;;;;;;17.15;8.32;;;10.30;99.90;;;;;;4949775;29;20050;-56
2023/02/21 15:27:49;;;;;;;14.90;7.43;;;10.30;99.90;;;;;;4939334;29;20052;-56
2023/02/21 15:30:16;;;;;;;11.43;7.65;;;10.20;99.90;;;;;;4942488;28;20051;-57